sensor_id;sensor_type;location;lat;lon;timestamp;pressure;altitude;pressure_sealevel;temperature;humidity
79481;BME280;68944;48.262;14.208;2023-08-31T00:01:40;97703.56;;;13.25;100.00
79481;BME280;68944;48.262;14.208;2023-08-31T00:04:05;97702.22;;;13.22;100.00
79481;BME280;68944;48.262;14.208;2023-08-31T00:06:36;97704.25;;;13.10;100.00
79481;BME280;68944;48.262;14.208;2023-08-31T00:09:01;97703.84;;;12.95;100.00
79481;BME280;68944;48.262;14.208;2023-08-31T00:11:30;97711.91;;;12.78;100.00
79481;BME280;68944;48.262;14.208;2023-08-31T00:13:55;97709.91;;;12.68;100.00
79481;BME280;68944;48.262;14.208;2023-08-31T00:16:24;97706.22;;;12.69;100.00
79481;BME280;68944;48.262;14.208;2023-08-31T00:18:50;97702.13;;;12.61;100.00
79481;BME280;68944;48.262;14.208;2023-08-31T00:21:16;97716.22;;;12.62;100.00
79481;BME280;68944;48.262;14.208;2023-08-31T00:23:41;97705.78;;;12.55;100.00
79481;BME280;68944;48.262;14.208;2023-08-31T00:26:07;97708.34;;;12.45;100.00
79481;BME280;68944;48.262;14.208;2023-08-31T00:28:34;97708.34;;;12.45;100.00
79481;BME280;68944;48.262;14.208;2023-08-31T00:31:03;97703.63;;;12.52;100.00
79481;BME280;68944;48.262;14.208;2023-08-31T00:33:29;97712.53;;;12.63;100.00
79481;BME280;68944;48.262;14.208;2023-08-31T00:35:58;97713.31;;;12.41;100.00
79481;BME280;68944;48.262;14.208;2023-08-31T00:38:27;97710.94;;;12.39;100.00
79481;BME280;68944;48.262;14.208;2023-08-31T00:40:53;97712.50;;;12.40;100.00
79481;BME280;68944;48.262;14.208;2023-08-31T00:43:19;97714.31;;;12.35;100.00
79481;BME280;68944;48.262;14.208;2023-08-31T00:45:47;97723.84;;;12.31;100.00
79481;BME280;68944;48.262;14.208;2023-08-31T00:48:15;97724.00;;;12.24;100.00
79481;BME280;68944;48.262;14.208;2023-08-31T00:50:45;97723.47;;;12.44;100.00
79481;BME280;68944;48.262;14.208;2023-08-31T00:53:11;97723.28;;;12.28;100.00
79481;BME280;68944;48.262;14.208;2023-08-31T00:55:37;97724.41;;;12.15;100.00
79481;BME280;68944;48.262;14.208;2023-08-31T00:58:06;97723.50;;;12.27;100.00
79481;BME280;68944;48.262;14.208;2023-08-31T01:04:33;97723.19;;;12.23;100.00
79481;BME280;68944;48.262;14.208;2023-08-31T01:06:59;97720.13;;;12.32;100.00
79481;BME280;68944;48.262;14.208;2023-08-31T01:12:46;97719.63;;;12.12;100.00
79481;BME280;68944;48.262;14.208;2023-08-31T01:15:16;97721.00;;;12.37;100.00
79481;BME280;68944;48.262;14.208;2023-08-31T01:17:48;97729.09;;;12.48;100.00
79481;BME280;68944;48.262;14.208;2023-08-31T01:20:19;97721.72;;;12.55;100.00
79481;BME280;68944;48.262;14.208;2023-08-31T01:22:58;97724.88;;;12.52;100.00
79481;BME280;68944;48.262;14.208;2023-08-31T01:25:26;97731.63;;;12.37;100.00
79481;BME280;68944;48.262;14.208;2023-08-31T01:27:51;97725.25;;;12.38;100.00
79481;BME280;68944;48.262;14.208;2023-08-31T01:30:17;97736.78;;;12.27;100.00
79481;BME280;68944;48.262;14.208;2023-08-31T01:32:44;97736.41;;;12.18;100.00
79481;BME280;68944;48.262;14.208;2023-08-31T01:35:11;97740.91;;;12.17;100.00
79481;BME280;68944;48.262;14.208;2023-08-31T01:37:45;97734.31;;;12.20;100.00
79481;BME280;68944;48.262;14.208;2023-08-31T01:40:27;97730.78;;;12.14;100.00
79481;BME280;68944;48.262;14.208;2023-08-31T01:42:58;97739.06;;;12.18;100.00
79481;BME280;68944;48.262;14.208;2023-08-31T01:45:26;97740.00;;;12.29;100.00
79481;BME280;68944;48.262;14.208;2023-08-31T01:47:52;97744.69;;;12.22;100.00
79481;BME280;68944;48.262;14.208;2023-08-31T01:50:17;97739.88;;;12.19;100.00
79481;BME280;68944;48.262;14.208;2023-08-31T01:52:43;97738.81;;;12.20;100.00
79481;BME280;68944;48.262;14.208;2023-08-31T01:55:08;97743.63;;;12.40;100.00
79481;BME280;68944;48.262;14.208;2023-08-31T01:57:34;97736.75;;;12.44;100.00
79481;BME280;68944;48.262;14.208;2023-08-31T02:00:19;97741.75;;;12.40;100.00
79481;BME280;68944;48.262;14.208;2023-08-31T02:02:46;97740.16;;;12.39;100.00
79481;BME280;68944;48.262;14.208;2023-08-31T02:05:12;97740.00;;;12.12;100.00
79481;BME280;68944;48.262;14.208;2023-08-31T02:07:38;97751.31;;;12.42;100.00
79481;BME280;68944;48.262;14.208;2023-08-31T02:10:05;97740.06;;;12.34;100.00
79481;BME280;68944;48.262;14.208;2023-08-31T02:12:32;97743.00;;;12.15;100.00
79481;BME280;68944;48.262;14.208;2023-08-31T02:14:58;97756.34;;;12.21;100.00
79481;BME280;68944;48.262;14.208;2023-08-31T02:17:24;97753.28;;;12.29;100.00
79481;BME280;68944;48.262;14.208;2023-08-31T02:19:51;97752.06;;;12.37;100.00
79481;BME280;68944;48.262;14.208;2023-08-31T02:22:16;97753.00;;;12.48;100.00
79481;BME280;68944;48.262;14.208;2023-08-31T02:24:42;97757.19;;;12.44;100.00
79481;BME280;68944;48.262;14.208;2023-08-31T02:27:07;97757.38;;;12.59;100.00
79481;BME280;68944;48.262;14.208;2023-08-31T02:29:33;97756.50;;;12.31;100.00
79481;BME280;68944;48.262;14.208;2023-08-31T02:31:59;97750.69;;;12.34;100.00
79481;BME280;68944;48.262;14.208;2023-08-31T02:34:24;97756.63;;;12.42;100.00
79481;BME280;68944;48.262;14.208;2023-08-31T02:36:50;97759.19;;;12.54;100.00
79481;BME280;68944;48.262;14.208;2023-08-31T02:39:15;97763.50;;;12.60;100.00
79481;BME280;68944;48.262;14.208;2023-08-31T02:41:41;97763.88;;;12.46;100.00
79481;BME280;68944;48.262;14.208;2023-08-31T02:44:07;97765.72;;;12.46;100.00
79481;BME280;68944;48.262;14.208;2023-08-31T02:46:32;97766.44;;;12.41;100.00
79481;BME280;68944;48.262;14.208;2023-08-31T02:48:58;97769.03;;;12.36;100.00
79481;BME280;68944;48.262;14.208;2023-08-31T02:51:23;97774.81;;;12.50;100.00
79481;BME280;68944;48.262;14.208;2023-08-31T02:53:49;97773.69;;;12.46;100.00
79481;BME280;68944;48.262;14.208;2023-08-31T02:56:15;97777.63;;;12.43;100.00
79481;BME280;68944;48.262;14.208;2023-08-31T02:58:41;97778.47;;;12.66;100.00
79481;BME280;68944;48.262;14.208;2023-08-31T03:01:10;97773.88;;;12.39;100.00
79481;BME280;68944;48.262;14.208;2023-08-31T03:03:39;97780.66;;;12.52;100.00
79481;BME280;68944;48.262;14.208;2023-08-31T03:06:09;97776.72;;;12.55;100.00
79481;BME280;68944;48.262;14.208;2023-08-31T03:08:36;97776.09;;;12.47;100.00
79481;BME280;68944;48.262;14.208;2023-08-31T03:11:03;97775.50;;;12.40;100.00
79481;BME280;68944;48.262;14.208;2023-08-31T03:13:28;97776.44;;;12.51;100.00
79481;BME280;68944;48.262;14.208;2023-08-31T03:15:54;97773.88;;;12.39;100.00
79481;BME280;68944;48.262;14.208;2023-08-31T03:18:23;97768.38;;;12.46;100.00
79481;BME280;68944;48.262;14.208;2023-08-31T03:20:49;97780.44;;;12.54;100.00
79481;BME280;68944;48.262;14.208;2023-08-31T03:23:15;97776.72;;;12.55;100.00
79481;BME280;68944;48.262;14.208;2023-08-31T03:25:41;97778.19;;;12.45;100.00
79481;BME280;68944;48.262;14.208;2023-08-31T03:28:07;97788.63;;;12.29;100.00
79481;BME280;68944;48.262;14.208;2023-08-31T03:30:32;97774.69;;;12.39;100.00
79481;BME280;68944;48.262;14.208;2023-08-31T03:32:58;97782.91;;;12.38;100.00
79481;BME280;68944;48.262;14.208;2023-08-31T03:35:23;97789.69;;;12.28;100.00
79481;BME280;68944;48.262;14.208;2023-08-31T03:37:53;97791.69;;;12.21;100.00
79481;BME280;68944;48.262;14.208;2023-08-31T03:40:19;97792.09;;;12.30;100.00
79481;BME280;68944;48.262;14.208;2023-08-31T03:42:45;97798.50;;;12.34;100.00
79481;BME280;68944;48.262;14.208;2023-08-31T03:45:11;97797.84;;;12.44;100.00
79481;BME280;68944;48.262;14.208;2023-08-31T03:47:37;97795.94;;;12.39;100.00
79481;BME280;68944;48.262;14.208;2023-08-31T03:50:03;97803.00;;;12.34;100.00
79481;BME280;68944;48.262;14.208;2023-08-31T03:52:29;97808.16;;;12.40;100.00
79481;BME280;68944;48.262;14.208;2023-08-31T03:54:55;97803.34;;;12.37;100.00
79481;BME280;68944;48.262;14.208;2023-08-31T03:57:21;97813.47;;;12.40;100.00
79481;BME280;68944;48.262;14.208;2023-08-31T03:59:48;97810.31;;;12.44;100.00
79481;BME280;68944;48.262;14.208;2023-08-31T04:02:14;97806.81;;;12.21;100.00
79481;BME280;68944;48.262;14.208;2023-08-31T04:04:40;97809.06;;;12.12;100.00
79481;BME280;68944;48.262;14.208;2023-08-31T04:07:06;97804.81;;;12.28;100.00
79481;BME280;68944;48.262;14.208;2023-08-31T04:09:32;97803.75;;;12.29;100.00
79481;BME280;68944;48.262;14.208;2023-08-31T04:11:58;97809.16;;;12.17;100.00
79481;BME280;68944;48.262;14.208;2023-08-31T04:14:26;97813.31;;;11.95;100.00
79481;BME280;68944;48.262;14.208;2023-08-31T04:16:51;97806.81;;;11.86;100.00
79481;BME280;68944;48.262;14.208;2023-08-31T04:19:17;97814.09;;;11.79;100.00
79481;BME280;68944;48.262;14.208;2023-08-31T04:21:43;97816.66;;;11.74;100.00
79481;BME280;68944;48.262;14.208;2023-08-31T04:24:09;97818.94;;;11.82;100.00
79481;BME280;68944;48.262;14.208;2023-08-31T04:26:35;97823.56;;;11.57;100.00
79481;BME280;68944;48.262;14.208;2023-08-31T04:29:02;97822.94;;;11.67;100.00
79481;BME280;68944;48.262;14.208;2023-08-31T04:31:28;97826.00;;;11.59;100.00
79481;BME280;68944;48.262;14.208;2023-08-31T04:33:54;97829.38;;;11.71;100.00
79481;BME280;68944;48.262;14.208;2023-08-31T04:36:20;97834.03;;;11.64;100.00
79481;BME280;68944;48.262;14.208;2023-08-31T04:38:48;97840.69;;;11.67;100.00
79481;BME280;68944;48.262;14.208;2023-08-31T04:41:14;97848.34;;;11.63;100.00
79481;BME280;68944;48.262;14.208;2023-08-31T04:43:40;97844.16;;;11.67;100.00
79481;BME280;68944;48.262;14.208;2023-08-31T04:46:05;97854.78;;;11.67;100.00
79481;BME280;68944;48.262;14.208;2023-08-31T04:48:31;97850.03;;;11.69;100.00
79481;BME280;68944;48.262;14.208;2023-08-31T04:50:56;97857.06;;;11.93;100.00
79481;BME280;68944;48.262;14.208;2023-08-31T04:53:22;97849.03;;;12.05;100.00
79481;BME280;68944;48.262;14.208;2023-08-31T04:55:48;97842.09;;;12.04;100.00
79481;BME280;68944;48.262;14.208;2023-08-31T04:58:13;97855.94;;;12.06;100.00
79481;BME280;68944;48.262;14.208;2023-08-31T05:00:39;97859.47;;;11.94;100.00
79481;BME280;68944;48.262;14.208;2023-08-31T05:03:05;97869.44;;;11.87;100.00
79481;BME280;68944;48.262;14.208;2023-08-31T05:05:31;97884.34;;;11.88;100.00
79481;BME280;68944;48.262;14.208;2023-08-31T05:07:56;97880.03;;;11.70;100.00
79481;BME280;68944;48.262;14.208;2023-08-31T05:10:22;97886.69;;;11.85;100.00
79481;BME280;68944;48.262;14.208;2023-08-31T05:12:47;97884.75;;;11.97;100.00
79481;BME280;68944;48.262;14.208;2023-08-31T05:15:13;97884.44;;;12.11;100.00
79481;BME280;68944;48.262;14.208;2023-08-31T05:17:39;97888.94;;;12.10;100.00
79481;BME280;68944;48.262;14.208;2023-08-31T05:20:05;97881.59;;;12.12;100.00
79481;BME280;68944;48.262;14.208;2023-08-31T05:22:30;97886.31;;;12.27;100.00
79481;BME280;68944;48.262;14.208;2023-08-31T05:24:56;97880.94;;;12.39;100.00
79481;BME280;68944;48.262;14.208;2023-08-31T05:27:21;97884.97;;;12.42;100.00
79481;BME280;68944;48.262;14.208;2023-08-31T05:29:47;97876.75;;;12.44;100.00
79481;BME280;68944;48.262;14.208;2023-08-31T05:32:12;97890.06;;;12.66;100.00
79481;BME280;68944;48.262;14.208;2023-08-31T05:34:38;97895.91;;;12.63;100.00
79481;BME280;68944;48.262;14.208;2023-08-31T05:37:05;97891.72;;;12.50;100.00
79481;BME280;68944;48.262;14.208;2023-08-31T05:39:30;97899.59;;;12.27;100.00
79481;BME280;68944;48.262;14.208;2023-08-31T05:41:56;97914.56;;;12.16;100.00
79481;BME280;68944;48.262;14.208;2023-08-31T05:44:22;97921.66;;;12.28;100.00
79481;BME280;68944;48.262;14.208;2023-08-31T05:46:48;97923.25;;;12.29;100.00
79481;BME280;68944;48.262;14.208;2023-08-31T05:49:14;97930.66;;;12.27;100.00
79481;BME280;68944;48.262;14.208;2023-08-31T05:51:39;97934.38;;;12.26;100.00
79481;BME280;68944;48.262;14.208;2023-08-31T05:54:05;97943.38;;;12.25;100.00
79481;BME280;68944;48.262;14.208;2023-08-31T05:56:35;97958.94;;;12.04;100.00
79481;BME280;68944;48.262;14.208;2023-08-31T05:59:01;97945.31;;;12.12;100.00
79481;BME280;68944;48.262;14.208;2023-08-31T06:01:27;97952.22;;;12.13;100.00
79481;BME280;68944;48.262;14.208;2023-08-31T06:03:52;97944.69;;;12.10;100.00
79481;BME280;68944;48.262;14.208;2023-08-31T06:06:18;97944.94;;;12.38;100.00
79481;BME280;68944;48.262;14.208;2023-08-31T06:08:43;97943.97;;;12.44;100.00
79481;BME280;68944;48.262;14.208;2023-08-31T06:11:09;97933.91;;;12.46;100.00
79481;BME280;68944;48.262;14.208;2023-08-31T06:13:35;97941.63;;;12.65;100.00
79481;BME280;68944;48.262;14.208;2023-08-31T06:16:00;97949.59;;;12.82;100.00
79481;BME280;68944;48.262;14.208;2023-08-31T06:18:26;97953.88;;;12.83;100.00
79481;BME280;68944;48.262;14.208;2023-08-31T06:20:51;97953.22;;;12.93;100.00
79481;BME280;68944;48.262;14.208;2023-08-31T06:23:17;97954.41;;;13.03;100.00
79481;BME280;68944;48.262;14.208;2023-08-31T06:25:43;97961.84;;;13.23;100.00
79481;BME280;68944;48.262;14.208;2023-08-31T06:28:10;97962.72;;;13.29;100.00
79481;BME280;68944;48.262;14.208;2023-08-31T06:30:36;97958.56;;;13.38;100.00
79481;BME280;68944;48.262;14.208;2023-08-31T06:33:02;97971.69;;;13.45;100.00
79481;BME280;68944;48.262;14.208;2023-08-31T06:35:28;97970.78;;;13.57;100.00
79481;BME280;68944;48.262;14.208;2023-08-31T06:37:53;97981.94;;;13.53;100.00
79481;BME280;68944;48.262;14.208;2023-08-31T06:40:21;97987.09;;;13.60;100.00
79481;BME280;68944;48.262;14.208;2023-08-31T06:42:47;97986.56;;;13.63;100.00
79481;BME280;68944;48.262;14.208;2023-08-31T06:45:12;97988.38;;;13.80;100.00
79481;BME280;68944;48.262;14.208;2023-08-31T06:47:37;97994.28;;;14.10;100.00
79481;BME280;68944;48.262;14.208;2023-08-31T06:50:03;98004.44;;;14.13;100.00
79481;BME280;68944;48.262;14.208;2023-08-31T06:52:29;98012.97;;;14.15;100.00
79481;BME280;68944;48.262;14.208;2023-08-31T06:54:55;98007.84;;;14.36;100.00
79481;BME280;68944;48.262;14.208;2023-08-31T06:57:26;97992.97;;;14.40;100.00
79481;BME280;68944;48.262;14.208;2023-08-31T06:59:52;98007.19;;;14.51;100.00
79481;BME280;68944;48.262;14.208;2023-08-31T07:02:18;97973.81;;;14.43;100.00
79481;BME280;68944;48.262;14.208;2023-08-31T07:04:45;97998.53;;;14.66;100.00
79481;BME280;68944;48.262;14.208;2023-08-31T07:07:11;97993.91;;;14.89;100.00
79481;BME280;68944;48.262;14.208;2023-08-31T07:09:43;97981.75;;;15.04;100.00
79481;BME280;68944;48.262;14.208;2023-08-31T07:12:11;97989.66;;;15.32;100.00
79481;BME280;68944;48.262;14.208;2023-08-31T07:14:37;97996.09;;;15.41;97.63
79481;BME280;68944;48.262;14.208;2023-08-31T07:17:03;98001.72;;;15.45;96.26
79481;BME280;68944;48.262;14.208;2023-08-31T07:19:28;97997.88;;;15.30;94.42
79481;BME280;68944;48.262;14.208;2023-08-31T07:21:54;97995.13;;;15.15;94.45
79481;BME280;68944;48.262;14.208;2023-08-31T07:24:23;97997.50;;;15.06;93.53
79481;BME280;68944;48.262;14.208;2023-08-31T07:26:50;97999.13;;;15.12;93.08
79481;BME280;68944;48.262;14.208;2023-08-31T07:29:16;98004.13;;;15.03;93.12
79481;BME280;68944;48.262;14.208;2023-08-31T07:31:41;98008.25;;;15.16;93.15
79481;BME280;68944;48.262;14.208;2023-08-31T07:34:07;98002.09;;;15.21;94.34
79481;BME280;68944;48.262;14.208;2023-08-31T07:36:33;98017.25;;;15.53;93.22
79481;BME280;68944;48.262;14.208;2023-08-31T07:38:58;98014.44;;;15.81;92.33
79481;BME280;68944;48.262;14.208;2023-08-31T07:41:24;98016.28;;;15.80;89.11
79481;BME280;68944;48.262;14.208;2023-08-31T07:43:49;98021.16;;;15.99;88.31
79481;BME280;68944;48.262;14.208;2023-08-31T07:46:17;98014.19;;;15.98;85.10
79481;BME280;68944;48.262;14.208;2023-08-31T07:48:42;98017.38;;;15.95;85.65
79481;BME280;68944;48.262;14.208;2023-08-31T07:51:08;98023.53;;;15.96;84.14
79481;BME280;68944;48.262;14.208;2023-08-31T07:53:33;98024.88;;;15.98;84.05
79481;BME280;68944;48.262;14.208;2023-08-31T07:55:59;98025.94;;;15.92;84.42
79481;BME280;68944;48.262;14.208;2023-08-31T07:58:25;98029.91;;;15.84;85.15
79481;BME280;68944;48.262;14.208;2023-08-31T08:00:57;98032.56;;;15.74;86.67
79481;BME280;68944;48.262;14.208;2023-08-31T08:03:23;98034.03;;;16.13;86.48
79481;BME280;68944;48.262;14.208;2023-08-31T08:05:49;98046.13;;;16.31;85.78
79481;BME280;68944;48.262;14.208;2023-08-31T08:08:15;98043.72;;;16.30;85.39
79481;BME280;68944;48.262;14.208;2023-08-31T08:10:40;98039.69;;;16.22;83.74
79481;BME280;68944;48.262;14.208;2023-08-31T08:13:08;98038.63;;;16.33;83.33
79481;BME280;68944;48.262;14.208;2023-08-31T08:15:34;98049.63;;;16.47;83.54
79481;BME280;68944;48.262;14.208;2023-08-31T08:17:59;98044.44;;;16.09;82.92
79481;BME280;68944;48.262;14.208;2023-08-31T08:20:25;98046.13;;;16.42;84.41
79481;BME280;68944;48.262;14.208;2023-08-31T08:22:51;98056.03;;;16.52;84.14
79481;BME280;68944;48.262;14.208;2023-08-31T08:25:21;98044.22;;;16.26;84.07
79481;BME280;68944;48.262;14.208;2023-08-31T08:27:47;98051.66;;;16.14;82.36
79481;BME280;68944;48.262;14.208;2023-08-31T08:30:13;98051.72;;;16.35;83.11
79481;BME280;68944;48.262;14.208;2023-08-31T08:32:41;98061.81;;;16.12;83.11
79481;BME280;68944;48.262;14.208;2023-08-31T08:35:06;98058.03;;;16.02;84.16
79481;BME280;68944;48.262;14.208;2023-08-31T08:37:32;98054.38;;;16.19;85.16
79481;BME280;68944;48.262;14.208;2023-08-31T08:39:58;98065.88;;;16.25;84.96
79481;BME280;68944;48.262;14.208;2023-08-31T08:42:25;98064.53;;;16.27;84.28
79481;BME280;68944;48.262;14.208;2023-08-31T08:44:51;98068.06;;;16.49;84.39
79481;BME280;68944;48.262;14.208;2023-08-31T08:47:20;98067.78;;;16.40;83.15
79481;BME280;68944;48.262;14.208;2023-08-31T08:49:47;98068.59;;;16.51;84.10
79481;BME280;68944;48.262;14.208;2023-08-31T08:52:13;98068.88;;;16.55;83.74
79481;BME280;68944;48.262;14.208;2023-08-31T08:54:40;98072.59;;;16.48;83.09
79481;BME280;68944;48.262;14.208;2023-08-31T08:57:05;98079.56;;;16.49;82.70
79481;BME280;68944;48.262;14.208;2023-08-31T08:59:31;98087.63;;;16.86;82.42
79481;BME280;68944;48.262;14.208;2023-08-31T09:01:57;98077.19;;;17.00;81.13
79481;BME280;68944;48.262;14.208;2023-08-31T09:04:23;98090.56;;;16.85;78.97
79481;BME280;68944;48.262;14.208;2023-08-31T09:06:50;98085.50;;;16.78;79.89
79481;BME280;68944;48.262;14.208;2023-08-31T09:09:16;98088.69;;;17.01;77.11
79481;BME280;68944;48.262;14.208;2023-08-31T09:11:43;98090.31;;;16.91;75.59
79481;BME280;68944;48.262;14.208;2023-08-31T09:14:16;98087.09;;;16.89;76.55
79481;BME280;68944;48.262;14.208;2023-08-31T09:16:51;98093.00;;;16.97;77.34
79481;BME280;68944;48.262;14.208;2023-08-31T09:19:24;98094.06;;;17.01;76.57
79481;BME280;68944;48.262;14.208;2023-08-31T09:21:51;98099.38;;;17.11;76.42
79481;BME280;68944;48.262;14.208;2023-08-31T09:24:17;98107.97;;;16.98;76.22
79481;BME280;68944;48.262;14.208;2023-08-31T09:26:55;98121.34;;;16.87;76.22
79481;BME280;68944;48.262;14.208;2023-08-31T09:29:21;98115.44;;;16.75;74.62
79481;BME280;68944;48.262;14.208;2023-08-31T09:31:47;98115.94;;;16.56;74.78
79481;BME280;68944;48.262;14.208;2023-08-31T09:34:14;98109.25;;;16.48;75.33
79481;BME280;68944;48.262;14.208;2023-08-31T09:36:40;98110.56;;;16.40;74.50
79481;BME280;68944;48.262;14.208;2023-08-31T09:39:06;98107.38;;;16.54;73.95
79481;BME280;68944;48.262;14.208;2023-08-31T09:41:32;98115.16;;;16.81;73.47
79481;BME280;68944;48.262;14.208;2023-08-31T09:44:16;98123.72;;;16.68;72.87
79481;BME280;68944;48.262;14.208;2023-08-31T09:46:43;98135.47;;;16.72;74.39
79481;BME280;68944;48.262;14.208;2023-08-31T09:49:10;98129.38;;;16.87;73.97
79481;BME280;68944;48.262;14.208;2023-08-31T09:51:39;98132.56;;;16.84;73.51
79481;BME280;68944;48.262;14.208;2023-08-31T09:54:07;98132.31;;;16.80;72.25
79481;BME280;68944;48.262;14.208;2023-08-31T09:56:35;98132.03;;;16.77;72.88
79481;BME280;68944;48.262;14.208;2023-08-31T09:59:01;98141.38;;;16.79;74.03
79481;BME280;68944;48.262;14.208;2023-08-31T10:01:28;98147.50;;;16.59;73.29
79481;BME280;68944;48.262;14.208;2023-08-31T10:03:53;98141.59;;;16.52;74.26
79481;BME280;68944;48.262;14.208;2023-08-31T10:06:20;98147.56;;;16.85;75.36
79481;BME280;68944;48.262;14.208;2023-08-31T10:08:47;98153.44;;;16.71;72.55
79481;BME280;68944;48.262;14.208;2023-08-31T10:11:13;98156.69;;;16.94;71.34
79481;BME280;68944;48.262;14.208;2023-08-31T10:13:44;98154.75;;;16.74;68.31
79481;BME280;68944;48.262;14.208;2023-08-31T10:16:11;98160.38;;;16.72;68.34
79481;BME280;68944;48.262;14.208;2023-08-31T10:18:37;98155.47;;;16.38;67.66
79481;BME280;68944;48.262;14.208;2023-08-31T10:21:03;98169.88;;;16.32;69.46
79481;BME280;68944;48.262;14.208;2023-08-31T10:23:29;98162.34;;;16.23;70.69
79481;BME280;68944;48.262;14.208;2023-08-31T10:28:24;98167.41;;;16.20;71.98
79481;BME280;68944;48.262;14.208;2023-08-31T10:31:09;98163.66;;;16.21;72.90
79481;BME280;68944;48.262;14.208;2023-08-31T10:33:39;98170.13;;;16.25;73.89
79481;BME280;68944;48.262;14.208;2023-08-31T10:36:12;98162.81;;;16.10;74.37
79481;BME280;68944;48.262;14.208;2023-08-31T10:38:38;98151.69;;;16.29;75.17
79481;BME280;68944;48.262;14.208;2023-08-31T10:43:58;98158.34;;;16.26;72.50
79481;BME280;68944;48.262;14.208;2023-08-31T10:46:33;98157.00;;;16.23;72.87
79481;BME280;68944;48.262;14.208;2023-08-31T10:51:41;98165.72;;;16.62;70.34
79481;BME280;68944;48.262;14.208;2023-08-31T10:54:11;98155.84;;;16.78;69.83
79481;BME280;68944;48.262;14.208;2023-08-31T10:59:25;98157.19;;;16.86;69.67
79481;BME280;68944;48.262;14.208;2023-08-31T11:04:16;98147.50;;;16.59;69.11
79481;BME280;68944;48.262;14.208;2023-08-31T11:06:42;98160.03;;;16.53;68.60
79481;BME280;68944;48.262;14.208;2023-08-31T11:09:18;98161.13;;;16.52;67.71
79481;BME280;68944;48.262;14.208;2023-08-31T11:11:44;98160.84;;;16.54;66.72
79481;BME280;68944;48.262;14.208;2023-08-31T11:14:10;98155.00;;;16.62;66.03
79481;BME280;68944;48.262;14.208;2023-08-31T11:16:38;98155.31;;;16.87;66.01
79481;BME280;68944;48.262;14.208;2023-08-31T11:19:04;98151.00;;;16.70;65.54
79481;BME280;68944;48.262;14.208;2023-08-31T11:21:30;98148.88;;;16.77;66.32
79481;BME280;68944;48.262;14.208;2023-08-31T11:23:57;98145.69;;;16.96;66.67
79481;BME280;68944;48.262;14.208;2023-08-31T11:26:26;98151.38;;;17.31;66.78
79481;BME280;68944;48.262;14.208;2023-08-31T11:28:57;98149.47;;;17.11;66.49
79481;BME280;68944;48.262;14.208;2023-08-31T11:31:26;98150.63;;;18.18;65.25
79481;BME280;68944;48.262;14.208;2023-08-31T11:33:52;98146.53;;;18.41;59.99
79481;BME280;68944;48.262;14.208;2023-08-31T11:36:18;98153.84;;;18.25;60.57
79481;BME280;68944;48.262;14.208;2023-08-31T11:38:44;98160.88;;;18.00;58.86
79481;BME280;68944;48.262;14.208;2023-08-31T11:41:09;98155.00;;;17.93;58.26
79481;BME280;68944;48.262;14.208;2023-08-31T11:43:36;98166.84;;;17.71;57.12
79481;BME280;68944;48.262;14.208;2023-08-31T11:46:03;98162.53;;;17.85;58.01
79481;BME280;68944;48.262;14.208;2023-08-31T11:48:30;98160.16;;;17.73;57.71
79481;BME280;68944;48.262;14.208;2023-08-31T11:50:56;98169.81;;;17.64;59.04
79481;BME280;68944;48.262;14.208;2023-08-31T11:53:22;98164.19;;;17.55;57.44
79481;BME280;68944;48.262;14.208;2023-08-31T11:55:51;98163.09;;;17.82;57.87
79481;BME280;68944;48.262;14.208;2023-08-31T11:58:17;98160.41;;;17.77;56.26
79481;BME280;68944;48.262;14.208;2023-08-31T12:00:43;98165.00;;;17.61;56.59
79481;BME280;68944;48.262;14.208;2023-08-31T12:03:09;98154.81;;;17.63;56.75
79481;BME280;68944;48.262;14.208;2023-08-31T12:05:48;98160.16;;;17.73;56.50
79481;BME280;68944;48.262;14.208;2023-08-31T12:08:14;98163.22;;;18.28;55.59
79481;BME280;68944;48.262;14.208;2023-08-31T12:10:41;98163.03;;;17.98;55.37
79481;BME280;68944;48.262;14.208;2023-08-31T12:13:08;98150.16;;;18.67;54.08
79481;BME280;68944;48.262;14.208;2023-08-31T12:15:34;98150.41;;;18.75;54.68
79481;BME280;68944;48.262;14.208;2023-08-31T12:18:09;98148.63;;;18.55;54.50
79481;BME280;68944;48.262;14.208;2023-08-31T12:20:51;98143.66;;;19.18;53.11
79481;BME280;68944;48.262;14.208;2023-08-31T12:23:18;98138.34;;;19.43;51.96
79481;BME280;68944;48.262;14.208;2023-08-31T12:25:53;98141.94;;;19.63;51.62
79481;BME280;68944;48.262;14.208;2023-08-31T12:28:21;98134.28;;;20.24;50.20
79481;BME280;68944;48.262;14.208;2023-08-31T12:30:53;98140.22;;;19.13;50.74
79481;BME280;68944;48.262;14.208;2023-08-31T12:33:20;98130.84;;;19.70;50.33
79481;BME280;68944;48.262;14.208;2023-08-31T12:35:46;98126.03;;;20.60;50.39
79481;BME280;68944;48.262;14.208;2023-08-31T12:38:12;98128.41;;;20.61;48.85
79481;BME280;68944;48.262;14.208;2023-08-31T12:40:38;98150.41;;;20.00;46.19
79481;BME280;68944;48.262;14.208;2023-08-31T12:43:04;98139.97;;;19.69;47.02
79481;BME280;68944;48.262;14.208;2023-08-31T12:45:30;98153.69;;;19.42;48.67
79481;BME280;68944;48.262;14.208;2023-08-31T12:47:56;98146.16;;;20.23;49.17
79481;BME280;68944;48.262;14.208;2023-08-31T12:50:21;98147.53;;;20.98;48.36
79481;BME280;68944;48.262;14.208;2023-08-31T12:52:47;98144.56;;;20.42;47.84
79481;BME280;68944;48.262;14.208;2023-08-31T12:55:13;98150.94;;;20.02;47.49
79481;BME280;68944;48.262;14.208;2023-08-31T12:57:40;98149.88;;;20.47;48.08
79481;BME280;68944;48.262;14.208;2023-08-31T13:00:07;98148.41;;;20.55;47.47
79481;BME280;68944;48.262;14.208;2023-08-31T13:02:40;98139.63;;;20.68;47.60
79481;BME280;68944;48.262;14.208;2023-08-31T13:05:06;98141.72;;;20.52;48.56